Terminal Aerodrome Forecast
Issued by NWS Sterling, VA

Current Version | Previous Version | Graphics & Text | Print | Product List | Glossary On
Versions: 1 2 3 4 5 6 7 8 9 10 11 12 13 14 15 16 17 18 19 20
000
FTUS41 KLWX 271200 AAA
TAFMRB
TAF AMD
KMRB 271228Z 2712/2812 33008KT 4SM -SN SCT020 OVC030
     FM271300 33010KT 5SM -SN OVC025
     FM271500 32013G22KT P6SM OVC035
     FM272100 31013G22KT P6SM BKN060
     FM280300 32011KT P6SM FEW250=

USA.gov is the U.S. government's official web portal to all federal, state and local government web resources and services.